createdAt,value
2018-05-27T00:01:42.595Z,21.20
2018-05-27T00:04:08.799Z,21.20
2018-05-27T00:06:35.015Z,21.20
2018-05-27T00:09:01.243Z,21.30
2018-05-27T00:11:34.507Z,21.30
2018-05-27T00:14:00.714Z,21.30
2018-05-27T00:16:26.931Z,21.30
2018-05-27T00:18:53.177Z,21.20
2018-05-27T00:21:19.350Z,21.20
2018-05-27T00:23:45.557Z,21.20
2018-05-27T00:26:11.739Z,21.10
2018-05-27T00:28:37.945Z,21.20
2018-05-27T00:31:04.167Z,21.20
2018-05-27T00:33:31.122Z,21.10
2018-05-27T00:35:57.345Z,21.10
2018-05-27T00:38:23.525Z,21.10
2018-05-27T00:40:49.738Z,21.10
2018-05-27T00:43:15.925Z,21.10
2018-05-27T00:45:42.141Z,21.10
2018-05-27T00:48:09.058Z,21.00
2018-05-27T00:50:35.261Z,21.00
2018-05-27T00:53:01.609Z,21.00
2018-05-27T00:55:27.822Z,21.00
2018-05-27T00:57:54.024Z,20.90
2018-05-27T01:00:20.227Z,20.80
2018-05-27T01:02:46.405Z,20.70
2018-05-27T01:05:12.649Z,20.70
2018-05-27T01:07:38.831Z,20.70
2018-05-27T01:10:05.038Z,20.60
2018-05-27T01:12:31.973Z,20.60
2018-05-27T01:14:58.373Z,20.60
2018-05-27T01:17:24.572Z,20.60
2018-05-27T01:19:50.796Z,20.50
2018-05-27T01:22:16.989Z,20.50
2018-05-27T01:24:43.226Z,20.40
2018-05-27T01:27:09.423Z,20.40
2018-05-27T01:29:35.632Z,20.40
2018-05-27T01:32:01.829Z,20.40
2018-05-27T01:34:28.042Z,20.30
2018-05-27T01:36:54.251Z,20.30
2018-05-27T01:39:20.442Z,20.30
2018-05-27T01:41:46.641Z,20.30
2018-05-27T01:44:12.809Z,20.20
2018-05-27T01:46:39.066Z,20.20
2018-05-27T01:49:06.043Z,20.10
2018-05-27T01:51:32.282Z,20.00
2018-05-27T01:53:58.467Z,20.00
2018-05-27T01:56:24.661Z,20.00
2018-05-27T01:58:50.841Z,19.90
2018-05-27T02:01:17.038Z,19.90
2018-05-27T02:03:43.969Z,19.80
2018-05-27T02:06:10.175Z,19.80
2018-05-27T02:08:36.373Z,19.80
2018-05-27T02:11:02.601Z,19.80
2018-05-27T02:13:28.770Z,19.70
2018-05-27T02:15:54.977Z,19.70
2018-05-27T02:18:21.211Z,19.70
2018-05-27T02:20:47.411Z,19.70
2018-05-27T02:23:13.636Z,19.70
2018-05-27T02:25:39.829Z,19.60
2018-05-27T02:28:06.058Z,19.50
2018-05-27T02:30:32.288Z,19.50
2018-05-27T02:32:58.493Z,19.60
2018-05-27T02:35:24.702Z,19.50
2018-05-27T02:37:50.893Z,19.40
2018-05-27T02:40:17.085Z,19.40
2018-05-27T02:42:44.015Z,19.40
2018-05-27T02:45:10.228Z,19.40
2018-05-27T02:47:36.411Z,19.40
2018-05-27T02:50:02.632Z,19.40
2018-05-27T02:52:28.828Z,19.40
2018-05-27T02:54:55.005Z,19.40
2018-05-27T02:57:21.213Z,19.30
2018-05-27T02:59:47.443Z,19.30
2018-05-27T03:02:13.649Z,19.30
2018-05-27T03:04:40.578Z,19.20
2018-05-27T03:07:06.793Z,19.10
2018-05-27T03:09:32.979Z,19.20
2018-05-27T03:11:59.218Z,19.20
2018-05-27T03:14:25.406Z,19.20
2018-05-27T03:16:52.364Z,19.30
2018-05-27T03:19:18.551Z,19.30
2018-05-27T03:21:44.758Z,19.30
2018-05-27T03:24:10.934Z,19.30
2018-05-27T03:26:37.907Z,19.30
2018-05-27T03:29:04.087Z,19.30
2018-05-27T03:31:30.300Z,19.30
2018-05-27T03:33:56.500Z,19.20
2018-05-27T03:36:22.701Z,19.20
2018-05-27T03:38:48.872Z,19.10
2018-05-27T03:41:15.085Z,19.10
2018-05-27T03:43:41.274Z,19.10
2018-05-27T03:46:07.469Z,19.20
2018-05-27T03:48:33.632Z,19.10
2018-05-27T03:50:59.821Z,19.20
2018-05-27T03:53:26.037Z,19.10
2018-05-27T03:55:52.265Z,19.10
2018-05-27T03:58:18.446Z,19.10
2018-05-27T04:00:44.637Z,19.10
2018-05-27T04:03:10.805Z,19.10
2018-05-27T04:05:49.106Z,19.10
2018-05-27T04:08:27.481Z,19.10
2018-05-27T04:10:53.693Z,19.10
2018-05-27T04:13:19.862Z,19.10
2018-05-27T04:15:46.906Z,19.10
2018-05-27T04:18:13.825Z,19.20
2018-05-27T04:20:40.072Z,19.20
2018-05-27T04:23:06.264Z,19.20
2018-05-27T04:25:32.459Z,19.20
2018-05-27T04:27:58.662Z,19.20
2018-05-27T04:30:25.582Z,19.10
2018-05-27T04:32:51.786Z,19.10
2018-05-27T04:35:18.041Z,19.20
2018-05-27T04:37:44.238Z,19.20
2018-05-27T04:40:10.419Z,19.30
2018-05-27T04:42:37.362Z,19.40
2018-05-27T04:45:03.566Z,19.40
2018-05-27T04:47:29.761Z,19.40
2018-05-27T04:49:55.943Z,19.40
2018-05-27T04:52:22.929Z,19.50
2018-05-27T04:54:49.125Z,19.50
2018-05-27T04:57:15.337Z,19.50
2018-05-27T04:59:42.285Z,19.60
2018-05-27T05:02:08.505Z,19.60
2018-05-27T05:04:35.422Z,19.70
2018-05-27T05:07:01.626Z,19.70
2018-05-27T05:09:27.832Z,19.70
2018-05-27T05:11:54.042Z,19.70
2018-05-27T05:14:20.222Z,19.80
2018-05-27T05:16:46.421Z,19.90
2018-05-27T05:19:12.797Z,19.90
2018-05-27T05:21:38.998Z,19.90
2018-05-27T05:24:05.185Z,20.10
2018-05-27T05:26:31.495Z,20.20
2018-05-27T05:28:58.426Z,20.50
2018-05-27T05:31:24.633Z,20.40
2018-05-27T05:33:50.837Z,20.50
2018-05-27T05:36:17.046Z,20.60
2018-05-27T05:38:43.993Z,20.80
2018-05-27T05:41:10.157Z,20.80
2018-05-27T05:43:36.390Z,20.90
2018-05-27T05:46:02.604Z,21.00
2018-05-27T05:48:28.819Z,21.10
2018-05-27T05:50:54.993Z,21.10
2018-05-27T05:53:21.203Z,21.20
2018-05-27T05:55:47.450Z,21.20
2018-05-27T05:58:13.622Z,21.20
2018-05-27T06:00:39.833Z,21.20
2018-05-27T06:03:06.038Z,21.20
2018-05-27T06:05:32.219Z,21.20
2018-05-27T06:07:58.430Z,21.20
2018-05-27T06:10:24.624Z,21.20
2018-05-27T06:12:50.827Z,21.20
2018-05-27T06:15:17.034Z,21.20
2018-05-27T06:17:43.258Z,21.20
2018-05-27T06:20:09.433Z,21.20
2018-05-27T06:22:36.410Z,21.30
2018-05-27T06:25:02.638Z,21.20
2018-05-27T06:27:28.838Z,21.40
2018-05-27T06:29:55.019Z,21.50
2018-05-27T06:32:21.251Z,21.60
2018-05-27T06:34:47.454Z,21.70
2018-05-27T06:37:13.708Z,21.80
2018-05-27T06:39:39.878Z,21.80
2018-05-27T06:42:06.835Z,21.90
2018-05-27T06:44:33.018Z,21.90
2018-05-27T06:46:59.206Z,22.00
2018-05-27T06:49:25.459Z,22.00
2018-05-27T06:51:51.626Z,22.10
2018-05-27T06:54:18.577Z,22.20
2018-05-27T06:56:45.617Z,22.10
2018-05-27T06:59:12.549Z,22.20
2018-05-27T07:01:38.739Z,22.20
2018-05-27T07:04:04.945Z,22.20
2018-05-27T07:06:31.117Z,22.30
2018-05-27T07:08:57.343Z,22.30
2018-05-27T07:11:23.523Z,22.40
2018-05-27T07:13:49.753Z,22.40
2018-05-27T07:16:15.922Z,22.40
2018-05-27T07:18:42.229Z,22.50
2018-05-27T07:21:08.420Z,22.60
2018-05-27T07:23:34.654Z,22.60
2018-05-27T07:26:00.865Z,22.70
2018-05-27T07:28:27.062Z,22.80
2018-05-27T07:30:53.244Z,22.80
2018-05-27T07:33:19.463Z,22.90
2018-05-27T07:35:45.651Z,23.00
2018-05-27T07:38:11.849Z,23.00
2018-05-27T07:40:38.078Z,23.10
2018-05-27T07:43:04.452Z,23.20
2018-05-27T07:45:30.666Z,23.30
2018-05-27T07:47:56.915Z,23.40
2018-05-27T07:50:23.120Z,23.60
2018-05-27T07:52:49.345Z,23.60
2018-05-27T07:55:15.553Z,23.60
2018-05-27T07:57:41.733Z,23.70
2018-05-27T08:00:07.939Z,23.70
2018-05-27T08:02:34.178Z,23.80
2018-05-27T08:05:00.400Z,23.90
2018-05-27T08:07:26.606Z,23.80
2018-05-27T08:09:52.821Z,23.90
2018-05-27T08:12:19.018Z,24.00
2018-05-27T08:14:45.295Z,24.10
2018-05-27T08:17:11.518Z,24.00
2018-05-27T08:19:37.718Z,24.10
2018-05-27T08:22:03.926Z,24.10
2018-05-27T08:24:30.121Z,24.20
2018-05-27T08:26:57.070Z,24.30
2018-05-27T08:29:24.044Z,24.40
2018-05-27T08:31:50.258Z,24.40
2018-05-27T08:34:16.491Z,24.50
2018-05-27T08:36:42.692Z,24.60
2018-05-27T08:39:08.892Z,24.80
2018-05-27T08:41:35.326Z,24.90
2018-05-27T08:44:01.549Z,25.10
2018-05-27T08:46:27.753Z,25.20
2018-05-27T08:48:54.027Z,25.20
2018-05-27T08:51:20.953Z,25.50
2018-05-27T08:53:47.177Z,25.50
2018-05-27T08:56:13.374Z,25.50
2018-05-27T08:58:39.628Z,25.60
2018-05-27T09:01:05.817Z,25.70
2018-05-27T09:03:32.046Z,25.70
2018-05-27T09:05:58.278Z,25.70
2018-05-27T09:08:24.470Z,25.80
2018-05-27T09:10:51.413Z,26.00
2018-05-27T09:13:17.619Z,26.00
2018-05-27T09:15:43.845Z,26.10
2018-05-27T09:18:10.093Z,26.10
2018-05-27T09:20:36.329Z,26.10
2018-05-27T09:23:02.538Z,26.20
2018-05-27T09:25:28.759Z,26.40
2018-05-27T09:27:54.967Z,26.40
2018-05-27T09:30:21.169Z,26.40
2018-05-27T09:32:47.402Z,26.50
2018-05-27T09:35:13.661Z,26.60
2018-05-27T09:37:39.871Z,26.60
2018-05-27T09:40:06.145Z,26.70
2018-05-27T09:42:32.361Z,26.70
2018-05-27T09:44:58.621Z,26.70
2018-05-27T09:47:24.781Z,26.80
2018-05-27T09:49:51.023Z,26.80
2018-05-27T09:52:17.241Z,26.80
2018-05-27T09:54:43.465Z,27.00
2018-05-27T09:57:09.679Z,27.30
2018-05-27T09:59:35.910Z,27.60
2018-05-27T10:02:02.119Z,27.80
2018-05-27T10:04:28.347Z,28.00
2018-05-27T10:06:54.717Z,28.30
2018-05-27T10:09:20.969Z,28.40
2018-05-27T10:11:47.166Z,28.60
2018-05-27T10:14:13.469Z,28.70
2018-05-27T10:16:39.725Z,28.80
2018-05-27T10:19:06.024Z,29.00
2018-05-27T10:21:32.314Z,29.00
2018-05-27T10:23:58.595Z,29.10
2018-05-27T10:26:24.906Z,29.30
2018-05-27T10:28:51.093Z,29.40
2018-05-27T10:31:17.332Z,29.40
2018-05-27T10:33:44.282Z,29.20
2018-05-27T10:36:10.540Z,29.20
2018-05-27T10:38:37.761Z,29.10
2018-05-27T10:41:04.873Z,28.90
2018-05-27T10:43:31.069Z,28.90
2018-05-27T10:45:57.287Z,28.90
2018-05-27T10:48:23.487Z,28.70
2018-05-27T10:50:49.913Z,28.70
2018-05-27T10:53:16.882Z,28.70
2018-05-27T10:55:43.150Z,28.70
2018-05-27T10:58:09.444Z,28.70
2018-05-27T11:00:35.741Z,28.70
2018-05-27T11:03:02.701Z,28.80
2018-05-27T11:05:29.722Z,28.90
2018-05-27T11:07:55.922Z,28.90
2018-05-27T11:10:22.161Z,28.90
2018-05-27T11:12:48.363Z,29.00
2018-05-27T11:15:14.603Z,29.10
2018-05-27T11:17:40.825Z,29.20
2018-05-27T11:20:07.042Z,29.30
2018-05-27T11:22:33.261Z,29.40
2018-05-27T11:24:59.893Z,29.50
2018-05-27T11:27:26.241Z,29.40
2018-05-27T11:29:52.535Z,29.40
2018-05-27T11:32:18.798Z,29.40
2018-05-27T11:34:45.021Z,29.50
2018-05-27T11:37:11.288Z,29.50
2018-05-27T11:39:37.490Z,29.60
2018-05-27T11:42:03.726Z,29.60
2018-05-27T11:44:29.978Z,29.60
2018-05-27T11:46:56.202Z,29.50
2018-05-27T11:49:22.425Z,29.50
2018-05-27T11:51:48.692Z,29.50
2018-05-27T11:54:15.746Z,29.40
2018-05-27T11:56:41.982Z,29.40
2018-05-27T11:59:08.943Z,29.50
2018-05-27T12:01:35.493Z,29.50
2018-05-27T12:04:01.807Z,29.60
2018-05-27T12:06:28.034Z,29.70
2018-05-27T12:08:54.231Z,29.80
2018-05-27T12:11:20.476Z,29.90
2018-05-27T12:13:46.671Z,29.90
2018-05-27T12:16:12.917Z,30.00
2018-05-27T12:18:39.122Z,30.10
2018-05-27T12:21:05.379Z,30.10
2018-05-27T12:23:31.651Z,30.20
2018-05-27T12:25:57.938Z,30.20
2018-05-27T12:28:24.147Z,30.00
2018-05-27T12:30:53.781Z,30.00
2018-05-27T12:33:20.010Z,29.90
2018-05-27T12:35:46.262Z,29.90
2018-05-27T12:38:12.465Z,29.90
2018-05-27T12:40:38.937Z,29.90
2018-05-27T12:43:05.141Z,30.00
2018-05-27T12:45:31.355Z,30.10
2018-05-27T12:47:57.594Z,30.20
2018-05-27T12:50:23.785Z,30.30
2018-05-27T12:52:50.766Z,30.30
2018-05-27T12:55:17.024Z,30.30
2018-05-27T12:57:43.246Z,30.20
2018-05-27T13:00:09.450Z,30.20
2018-05-27T13:02:35.677Z,30.10
2018-05-27T13:05:01.919Z,30.10
2018-05-27T13:07:28.246Z,29.90
2018-05-27T13:09:54.398Z,29.80
2018-05-27T13:12:20.692Z,29.80
2018-05-27T13:14:46.945Z,29.80
2018-05-27T13:17:13.158Z,29.60
2018-05-27T13:19:39.353Z,29.50
2018-05-27T13:22:05.582Z,29.40
2018-05-27T13:24:31.773Z,29.10
2018-05-27T13:26:57.992Z,28.80
2018-05-27T13:29:24.837Z,28.60
2018-05-27T13:31:51.057Z,28.50
2018-05-27T13:34:17.850Z,28.30
2018-05-27T13:36:44.053Z,28.10
2018-05-27T13:39:10.257Z,28.00
2018-05-27T13:41:36.494Z,27.90
2018-05-27T13:44:02.797Z,27.70
2018-05-27T13:46:29.019Z,27.60
2018-05-27T13:48:55.310Z,27.50
2018-05-27T13:51:21.541Z,27.40
2018-05-27T13:53:47.806Z,27.00
2018-05-27T13:56:14.051Z,26.50
2018-05-27T13:58:40.283Z,26.00
2018-05-27T14:01:06.701Z,25.70
2018-05-27T14:03:32.939Z,25.40
2018-05-27T14:05:59.152Z,25.20
2018-05-27T14:08:25.402Z,25.00
2018-05-27T14:10:51.643Z,24.80
2018-05-27T14:13:17.908Z,24.60
2018-05-27T14:15:44.089Z,24.40
2018-05-27T14:18:10.335Z,24.00
2018-05-27T14:20:37.288Z,23.40
2018-05-27T14:23:03.584Z,23.40
2018-05-27T14:25:29.778Z,23.30
2018-05-27T14:27:56.116Z,23.10
2018-05-27T14:30:23.087Z,22.70
2018-05-27T14:32:49.300Z,22.70
2018-05-27T14:35:15.519Z,22.40
2018-05-27T14:37:41.714Z,22.30
2018-05-27T14:40:07.961Z,22.10
2018-05-27T14:42:34.173Z,22.10
2018-05-27T14:45:00.353Z,22.10
2018-05-27T14:47:26.562Z,22.20
2018-05-27T14:49:52.757Z,22.30
2018-05-27T14:52:19.047Z,22.30
2018-05-27T14:54:46.528Z,22.20
2018-05-27T14:57:13.646Z,22.20
2018-05-27T14:59:39.838Z,22.30
2018-05-27T15:02:06.101Z,22.50
2018-05-27T15:04:32.296Z,22.50
2018-05-27T15:06:58.511Z,22.40
2018-05-27T15:09:24.739Z,22.20
2018-05-27T15:11:50.974Z,22.10
2018-05-27T15:14:17.174Z,22.00
2018-05-27T15:16:43.374Z,22.00
2018-05-27T15:19:09.602Z,21.90
2018-05-27T15:21:36.102Z,22.10
2018-05-27T15:24:02.350Z,22.20
2018-05-27T15:26:28.661Z,22.30
2018-05-27T15:28:54.874Z,22.30
2018-05-27T15:31:21.103Z,22.40
2018-05-27T15:33:47.324Z,22.30
2018-05-27T15:36:13.537Z,22.20
2018-05-27T15:38:39.779Z,22.30
2018-05-27T15:41:05.990Z,22.30
2018-05-27T15:43:32.195Z,22.30
2018-05-27T15:45:58.394Z,22.30
2018-05-27T15:48:24.788Z,22.20
2018-05-27T15:50:51.785Z,22.40
2018-05-27T15:53:18.041Z,22.40
2018-05-27T15:55:44.233Z,22.50
2018-05-27T15:58:10.461Z,22.50
2018-05-27T16:00:36.683Z,22.40
2018-05-27T16:03:02.947Z,22.30
2018-05-27T16:05:29.364Z,22.40
2018-05-27T16:07:56.383Z,22.50
2018-05-27T16:10:22.584Z,22.50
2018-05-27T16:12:48.804Z,22.40
2018-05-27T16:15:14.982Z,22.40
2018-05-27T16:17:41.217Z,22.50
2018-05-27T16:20:07.525Z,22.50
2018-05-27T16:22:33.745Z,22.70
2018-05-27T16:24:59.985Z,22.80
2018-05-27T16:27:26.714Z,22.80
2018-05-27T16:29:52.925Z,22.70
2018-05-27T16:32:19.140Z,22.50
2018-05-27T16:34:45.385Z,22.30
2018-05-27T16:37:11.614Z,22.10
2018-05-27T16:39:37.841Z,22.20
2018-05-27T16:42:04.052Z,22.20
2018-05-27T16:44:30.283Z,22.30
2018-05-27T16:46:56.501Z,22.30
2018-05-27T16:49:22.791Z,22.00
2018-05-27T16:51:50.298Z,21.60
2018-05-27T16:54:16.501Z,21.60
2018-05-27T16:56:42.688Z,21.50
2018-05-27T16:59:08.959Z,21.40
2018-05-27T17:01:35.155Z,21.50
2018-05-27T17:04:01.458Z,21.50
2018-05-27T17:06:27.666Z,21.50
2018-05-27T17:08:54.102Z,21.50
2018-05-27T17:11:20.306Z,21.60
2018-05-27T17:13:46.537Z,21.70
2018-05-27T17:16:12.834Z,21.80
2018-05-27T17:18:39.067Z,21.90
2018-05-27T17:21:05.270Z,22.00
2018-05-27T17:23:31.574Z,22.00
2018-05-27T17:25:57.823Z,22.00
2018-05-27T17:28:24.023Z,22.00
2018-05-27T17:30:50.214Z,22.10
2018-05-27T17:33:17.254Z,22.20
2018-05-27T17:35:43.483Z,22.10
2018-05-27T17:38:09.733Z,22.20
2018-05-27T17:40:36.010Z,22.10
2018-05-27T17:43:02.341Z,22.10
2018-05-27T17:45:28.582Z,22.10
2018-05-27T17:48:06.869Z,22.10
2018-05-27T17:50:33.101Z,22.00
2018-05-27T17:53:00.015Z,22.10
2018-05-27T17:55:26.286Z,22.20
2018-05-27T17:57:52.507Z,22.20
2018-05-27T18:00:19.626Z,22.40
2018-05-27T18:02:45.818Z,22.50
2018-05-27T18:05:12.478Z,22.60
2018-05-27T18:07:38.682Z,22.60
2018-05-27T18:10:04.982Z,22.70
2018-05-27T18:12:31.403Z,22.70
2018-05-27T18:14:57.709Z,22.70
2018-05-27T18:17:23.911Z,22.60
2018-05-27T18:19:50.202Z,22.70
2018-05-27T18:22:16.534Z,22.70
2018-05-27T18:24:42.810Z,22.60
2018-05-27T18:27:09.002Z,22.50
2018-05-27T18:29:35.201Z,22.50
2018-05-27T18:32:01.562Z,22.50
2018-05-27T18:34:27.856Z,22.50
2018-05-27T18:36:54.121Z,22.50
2018-05-27T18:39:20.363Z,22.50
2018-05-27T18:41:47.302Z,22.50
2018-05-27T18:44:13.509Z,22.50
2018-05-27T18:46:39.718Z,22.40
2018-05-27T18:49:06.986Z,22.40
2018-05-27T18:51:33.322Z,22.40
2018-05-27T18:53:59.510Z,22.40
2018-05-27T18:56:25.706Z,22.40
2018-05-27T18:58:51.920Z,22.30
2018-05-27T19:01:18.149Z,22.10
2018-05-27T19:03:44.360Z,22.00
2018-05-27T19:06:10.614Z,21.90
2018-05-27T19:08:36.813Z,21.80
2018-05-27T19:11:03.051Z,21.70
2018-05-27T19:13:29.235Z,21.60
2018-05-27T19:15:55.497Z,21.60
2018-05-27T19:18:21.697Z,21.50
2018-05-27T19:20:48.011Z,21.50
2018-05-27T19:23:14.222Z,21.50
2018-05-27T19:25:40.477Z,21.40
2018-05-27T19:28:06.749Z,21.30
2018-05-27T19:30:33.830Z,21.10
2018-05-27T19:33:00.070Z,21.10
2018-05-27T19:35:26.321Z,21.00
2018-05-27T19:37:52.726Z,21.00
2018-05-27T19:40:18.988Z,20.90
2018-05-27T19:42:45.281Z,20.90
2018-05-27T19:45:11.541Z,20.80
2018-05-27T19:47:37.841Z,20.80
2018-05-27T19:50:04.172Z,20.80
2018-05-27T19:52:30.367Z,20.70
2018-05-27T19:54:56.602Z,20.70
2018-05-27T19:57:22.820Z,20.70
2018-05-27T19:59:50.794Z,20.70
2018-05-27T20:02:17.942Z,20.80
2018-05-27T20:04:44.157Z,20.80
2018-05-27T20:07:11.794Z,20.80
2018-05-27T20:09:38.067Z,20.80
2018-05-27T20:12:04.651Z,20.80
2018-05-27T20:14:30.942Z,20.80
2018-05-27T20:16:57.335Z,20.80
2018-05-27T20:19:23.703Z,20.80
2018-05-27T20:21:50.557Z,20.70
2018-05-27T20:24:16.948Z,20.70
2018-05-27T20:26:43.505Z,20.70
2018-05-27T20:29:09.757Z,20.70
2018-05-27T20:31:36.092Z,20.80
2018-05-27T20:34:02.714Z,20.80
2018-05-27T20:36:29.098Z,20.70
2018-05-27T20:38:55.684Z,20.70
2018-05-27T20:41:22.135Z,20.70
2018-05-27T20:43:48.441Z,20.70
2018-05-27T20:46:14.796Z,20.70
2018-05-27T20:48:41.001Z,20.70
2018-05-27T20:51:07.558Z,20.70
2018-05-27T20:53:34.040Z,20.70
2018-05-27T20:56:00.454Z,20.60
2018-05-27T20:58:26.729Z,20.60
2018-05-27T21:00:52.930Z,20.60
2018-05-27T21:03:19.877Z,20.40
2018-05-27T21:05:46.121Z,20.40
2018-05-27T21:08:12.305Z,20.40
2018-05-27T21:10:38.514Z,20.30
2018-05-27T21:13:04.723Z,20.30
2018-05-27T21:15:31.007Z,20.20
2018-05-27T21:17:57.998Z,20.20
2018-05-27T21:20:24.201Z,20.20
2018-05-27T21:22:51.159Z,20.10
2018-05-27T21:25:17.405Z,20.10
2018-05-27T21:27:44.374Z,20.10
2018-05-27T21:30:10.577Z,20.00
2018-05-27T21:32:36.784Z,20.10
2018-05-27T21:35:03.039Z,20.10
2018-05-27T21:37:29.302Z,20.00
2018-05-27T21:39:55.551Z,19.90
2018-05-27T21:42:21.837Z,19.80
2018-05-27T21:44:48.885Z,19.80
2018-05-27T21:47:15.161Z,19.70
2018-05-27T21:49:41.362Z,19.70
2018-05-27T21:52:07.585Z,19.70
2018-05-27T21:54:33.822Z,19.60
2018-05-27T21:57:00.058Z,19.60
2018-05-27T21:59:26.242Z,19.60
2018-05-27T22:01:53.230Z,19.60
2018-05-27T22:04:20.166Z,19.60
2018-05-27T22:06:47.133Z,19.70
2018-05-27T22:09:13.353Z,19.60
2018-05-27T22:11:39.565Z,19.70
2018-05-27T22:14:05.945Z,19.70
2018-05-27T22:16:32.158Z,19.70
2018-05-27T22:18:58.336Z,19.70
2018-05-27T22:21:24.562Z,19.70
2018-05-27T22:23:50.754Z,19.60
2018-05-27T22:26:17.184Z,19.60
2018-05-27T22:28:43.385Z,19.50
2018-05-27T22:31:09.582Z,19.40
2018-05-27T22:33:35.806Z,19.40
2018-05-27T22:36:01.994Z,19.40
2018-05-27T22:38:28.224Z,19.30
2018-05-27T22:40:54.421Z,19.30
2018-05-27T22:43:21.394Z,19.20
2018-05-27T22:45:47.585Z,19.20
2018-05-27T22:48:13.793Z,19.20
2018-05-27T22:50:39.973Z,19.20
2018-05-27T22:53:06.190Z,19.10
2018-05-27T22:55:32.353Z,19.10
2018-05-27T22:57:58.581Z,19.10
2018-05-27T23:00:24.762Z,19.10
2018-05-27T23:02:50.946Z,19.10
2018-05-27T23:05:17.239Z,19.10
2018-05-27T23:07:43.439Z,19.10
2018-05-27T23:10:09.613Z,19.10
2018-05-27T23:12:35.813Z,19.10
2018-05-27T23:15:02.022Z,19.10
2018-05-27T23:17:28.221Z,19.10
2018-05-27T23:19:54.422Z,19.10
2018-05-27T23:22:20.646Z,19.10
2018-05-27T23:24:46.828Z,19.10
2018-05-27T23:27:13.046Z,19.10
2018-05-27T23:29:39.986Z,19.10
2018-05-27T23:32:06.177Z,19.00
2018-05-27T23:34:32.367Z,19.00
2018-05-27T23:36:58.573Z,19.00
2018-05-27T23:39:25.508Z,19.00
2018-05-27T23:41:52.424Z,19.00
2018-05-27T23:44:18.617Z,19.00
2018-05-27T23:46:44.981Z,19.00
2018-05-27T23:49:11.190Z,19.00
2018-05-27T23:51:37.380Z,19.00
2018-05-27T23:54:03.595Z,19.00
2018-05-27T23:56:29.782Z,18.90
2018-05-27T23:58:55.989Z,18.90
